sensor_id;sensor_type;location;lat;lon;timestamp;pressure;altitude;pressure_sealevel;temperature;humidity
74435;BME280;62867;52.038;29.256;2023-06-01T00:01:34;1022.9;;;14;53.4
74435;BME280;62867;52.038;29.256;2023-06-01T00:07:26;1023;;;14;52.8
74435;BME280;62867;52.038;29.256;2023-06-01T00:12:12;1023;;;14.1;52.5
74435;BME280;62867;52.038;29.256;2023-06-01T00:16:44;1023;;;14.1;52.2
74435;BME280;62867;52.038;29.256;2023-06-01T00:21:34;1023;;;14.2;51.9
74435;BME280;62867;52.038;29.256;2023-06-01T00:26:56;1023;;;14.2;52
74435;BME280;62867;52.038;29.256;2023-06-01T00:32:12;1023;;;14.2;52.1
74435;BME280;62867;52.038;29.256;2023-06-01T00:36:44;1023;;;14.1;52.3
74435;BME280;62867;52.038;29.256;2023-06-01T00:42:12;1022.9;;;14.1;52.5
74435;BME280;62867;52.038;29.256;2023-06-01T00:47:26;1022.9;;;14.1;52.6
74435;BME280;62867;52.038;29.256;2023-06-01T00:51:44;1022.8;;;14;53.1
74435;BME280;62867;52.038;29.256;2023-06-01T00:56:36;1022.9;;;14;53.4
74435;BME280;62867;52.038;29.256;2023-06-01T01:01:56;1022.9;;;13.9;53.3
74435;BME280;62867;52.038;29.256;2023-06-01T01:06:37;1022.9;;;13.8;53.3
74435;BME280;62867;52.038;29.256;2023-06-01T01:12:17;1022.9;;;13.7;53.4
74435;BME280;62867;52.038;29.256;2023-06-01T01:16:46;1022.9;;;13.6;53.5
74435;BME280;62867;52.038;29.256;2023-06-01T01:22:34;1022.9;;;13.5;53.6
74435;BME280;62867;52.038;29.256;2023-06-01T01:26:49;1022.8;;;13.5;53.8
74435;BME280;62867;52.038;29.256;2023-06-01T01:31:56;1022.9;;;13.4;54.3
74435;BME280;62867;52.038;29.256;2023-06-01T01:36:34;1022.9;;;13.3;54.5
74435;BME280;62867;52.038;29.256;2023-06-01T01:41:46;1022.8;;;13.2;54.8
74435;BME280;62867;52.038;29.256;2023-06-01T01:46:36;1022.8;;;13.2;55.2
74435;BME280;62867;52.038;29.256;2023-06-01T01:52:14;1022.9;;;13.2;55.6
74435;BME280;62867;52.038;29.256;2023-06-01T01:56:34;1022.9;;;13.2;55.7
74435;BME280;62867;52.038;29.256;2023-06-01T02:02:28;1022.9;;;13.2;55.5
74435;BME280;62867;52.038;29.256;2023-06-01T02:07:28;1023;;;13.2;55.4
74435;BME280;62867;52.038;29.256;2023-06-01T02:12:00;1023;;;13.2;55.1
74435;BME280;62867;52.038;29.256;2023-06-01T02:16:46;1023;;;13.2;55.2
74435;BME280;62867;52.038;29.256;2023-06-01T02:22:12;1023;;;13.2;55.4
74435;BME280;62867;52.038;29.256;2023-06-01T02:27:28;1022.9;;;13.2;55.7
74435;BME280;62867;52.038;29.256;2023-06-01T02:31:46;1022.9;;;13.2;55.9
74435;BME280;62867;52.038;29.256;2023-06-01T02:37:12;1022.9;;;13.4;55.8
74435;BME280;62867;52.038;29.256;2023-06-01T02:42:12;1022.9;;;13.5;55.6
74435;BME280;62867;52.038;29.256;2023-06-01T02:46:34;1022.9;;;13.7;55.4
74435;BME280;62867;52.038;29.256;2023-06-01T02:51:58;1022.9;;;13.9;55
74435;BME280;62867;52.038;29.256;2023-06-01T02:56:58;1022.9;;;14.1;54.6
74435;BME280;62867;52.038;29.256;2023-06-01T03:02:14;1022.9;;;14.3;54.3
74435;BME280;62867;52.038;29.256;2023-06-01T03:06:46;1022.9;;;14.6;54.1
74435;BME280;62867;52.038;29.256;2023-06-01T03:12:14;1022.8;;;14.8;54
74435;BME280;62867;52.038;29.256;2023-06-01T03:17:28;1022.8;;;14.9;53.8
74435;BME280;62867;52.038;29.256;2023-06-01T03:22:12;1022.8;;;15.1;53.7
74435;BME280;62867;52.038;29.256;2023-06-01T03:27:00;1022.8;;;15.4;53.8
74435;BME280;62867;52.038;29.256;2023-06-01T03:31:58;1022.8;;;15.6;53.8
74435;BME280;62867;52.038;29.256;2023-06-01T03:37:00;1022.8;;;15.8;53.9
74435;BME280;62867;52.038;29.256;2023-06-01T03:42:28;1022.7;;;16.1;53.7
74435;BME280;62867;52.038;29.256;2023-06-01T03:47:00;1022.7;;;16.3;53.4
74435;BME280;62867;52.038;29.256;2023-06-01T03:52:28;1022.7;;;16.6;53.2
74435;BME280;62867;52.038;29.256;2023-06-01T03:56:34;1022.6;;;16.9;52.7
74435;BME280;62867;52.038;29.256;2023-06-01T04:01:58;1022.6;;;17.1;52.4
74435;BME280;62867;52.038;29.256;2023-06-01T04:07:00;1022.6;;;17.4;52.2
74435;BME280;62867;52.038;29.256;2023-06-01T04:11:48;1022.5;;;17.7;51.8
74435;BME280;62867;52.038;29.256;2023-06-01T04:16:34;1022.5;;;17.9;51.6
74435;BME280;62867;52.038;29.256;2023-06-01T04:22:10;1022.4;;;18.1;51.2
74435;BME280;62867;52.038;29.256;2023-06-01T04:26:34;1022.4;;;18.4;50.7
74435;BME280;62867;52.038;29.256;2023-06-01T04:32:26;1022.4;;;18.7;50.5
74435;BME280;62867;52.038;29.256;2023-06-01T04:37:28;1022.3;;;18.9;49.4
74435;BME280;62867;52.038;29.256;2023-06-01T04:41:46;1022.3;;;19.1;48.4
74435;BME280;62867;52.038;29.256;2023-06-01T04:46:34;1022.3;;;19.4;47
74435;BME280;62867;52.038;29.256;2023-06-01T04:52:10;1022.3;;;19.7;46.8
74435;BME280;62867;52.038;29.256;2023-06-01T04:57:14;1022.3;;;20;46.6
74435;BME280;62867;52.038;29.256;2023-06-01T05:01:46;1022.3;;;20.3;46
74435;BME280;62867;52.038;29.256;2023-06-01T05:07:26;1022.3;;;20.7;45.5
74435;BME280;62867;52.038;29.256;2023-06-01T05:11:46;1022.2;;;20.9;44.3
74435;BME280;62867;52.038;29.256;2023-06-01T05:17:10;1022.2;;;21.1;43.4
74435;BME280;62867;52.038;29.256;2023-06-01T05:22:12;1022.2;;;21.4;42.7
74435;BME280;62867;52.038;29.256;2023-06-01T05:27:26;1022.1;;;21.7;40.9
74435;BME280;62867;52.038;29.256;2023-06-01T05:32:24;1022.2;;;21.8;38.9
74435;BME280;62867;52.038;29.256;2023-06-01T05:37:24;1022.1;;;21.9;39.2
74435;BME280;62867;52.038;29.256;2023-06-01T05:42:12;1022.1;;;22.2;39.3
74435;BME280;62867;52.038;29.256;2023-06-01T05:46:48;1022.1;;;22.5;39.2
74435;BME280;62867;52.038;29.256;2023-06-01T05:51:34;1022.2;;;22.9;38.7
74435;BME280;62867;52.038;29.256;2023-06-01T05:56:56;1022.1;;;23.2;37.9
74435;BME280;62867;52.038;29.256;2023-06-01T06:02:26;1022.1;;;23.5;37.3
74435;BME280;62867;52.038;29.256;2023-06-01T06:06:56;1022.1;;;23.8;36.8
74435;BME280;62867;52.038;29.256;2023-06-01T06:12:10;1022.1;;;24;35.9
74435;BME280;62867;52.038;29.256;2023-06-01T06:16:36;1022.1;;;24.3;33.9
74435;BME280;62867;52.038;29.256;2023-06-01T06:22:26;1022;;;24.5;33.3
74435;BME280;62867;52.038;29.256;2023-06-01T06:26:46;1022;;;24.8;32.8
74435;BME280;62867;52.038;29.256;2023-06-01T06:31:46;1022;;;25.2;33.3
74435;BME280;62867;52.038;29.256;2023-06-01T06:37:12;1022;;;25.6;32.1
74435;BME280;62867;52.038;29.256;2023-06-01T06:41:34;1022;;;25.8;31.1
74435;BME280;62867;52.038;29.256;2023-06-01T06:47:26;1022;;;25.9;30.7
74435;BME280;62867;52.038;29.256;2023-06-01T06:51:52;1022;;;26.1;30.3
74435;BME280;62867;52.038;29.256;2023-06-01T06:56:46;1022;;;26.4;30.4
74435;BME280;62867;52.038;29.256;2023-06-01T07:02:12;1022;;;26.6;29.4
74435;BME280;62867;52.038;29.256;2023-06-01T07:06:58;1022;;;26.8;28.7
74435;BME280;62867;52.038;29.256;2023-06-01T07:11:46;1021.9;;;27.1;27.2
74435;BME280;62867;52.038;29.256;2023-06-01T07:17:24;1021.9;;;27.2;27.5
74435;BME280;62867;52.038;29.256;2023-06-01T07:22:11;1021.9;;;27.5;27.7
74435;BME280;62867;52.038;29.256;2023-06-01T07:27:14;1021.8;;;27.8;27.3
74435;BME280;62867;52.038;29.256;2023-06-01T07:31:58;1021.8;;;28.1;27.4
74435;BME280;62867;52.038;29.256;2023-06-01T07:37:26;1021.7;;;28.3;26.3
74435;BME280;62867;52.038;29.256;2023-06-01T07:42:00;1021.7;;;28.4;26.1
74435;BME280;62867;52.038;29.256;2023-06-01T07:46:46;1021.6;;;28.6;25.4
74435;BME280;62867;52.038;29.256;2023-06-01T07:51:34;1021.6;;;28.6;25.1
74435;BME280;62867;52.038;29.256;2023-06-01T07:57:24;1021.6;;;28.8;25.4
74435;BME280;62867;52.038;29.256;2023-06-01T08:02:24;1021.5;;;29;24.5
74435;BME280;62867;52.038;29.256;2023-06-01T08:07:24;1021.5;;;29.1;24.5
74435;BME280;62867;52.038;29.256;2023-06-01T08:12:13;1021.5;;;29.3;24.3
74435;BME280;62867;52.038;29.256;2023-06-01T08:16:56;1021.5;;;29.4;23.8
74435;BME280;62867;52.038;29.256;2023-06-01T08:22:14;1021.4;;;29.5;23.8
74435;BME280;62867;52.038;29.256;2023-06-01T08:26:46;1021.3;;;29.8;22.9
74435;BME280;62867;52.038;29.256;2023-06-01T08:32:29;1021.3;;;30.1;23.1
74435;BME280;62867;52.038;29.256;2023-06-01T08:36:34;1021.3;;;30.4;22.5
74435;BME280;62867;52.038;29.256;2023-06-01T08:42:29;1021.2;;;30.7;22.1
74435;BME280;62867;52.038;29.256;2023-06-01T08:47:14;1021.2;;;30.9;22
74435;BME280;62867;52.038;29.256;2023-06-01T08:52:28;1021.1;;;31.2;22.1
74435;BME280;62867;52.038;29.256;2023-06-01T08:57:12;1021.1;;;31.3;21.2
74435;BME280;62867;52.038;29.256;2023-06-01T09:01:58;1021.1;;;31.2;21
74435;BME280;62867;52.038;29.256;2023-06-01T09:07:14;1021;;;31.2;20.6
74435;BME280;62867;52.038;29.256;2023-06-01T09:11:46;1020.9;;;31.2;20.4
74435;BME280;62867;52.038;29.256;2023-06-01T09:17:15;1020.9;;;31.4;20.5
74435;BME280;62867;52.038;29.256;2023-06-01T09:22:37;1020.8;;;31.5;20.2
74435;BME280;62867;52.038;29.256;2023-06-01T09:27:00;1020.8;;;31.8;20.2
74435;BME280;62867;52.038;29.256;2023-06-01T09:32:18;1020.8;;;31.9;19.9
74435;BME280;62867;52.038;29.256;2023-06-01T09:36:46;1020.7;;;32.1;19.7
74435;BME280;62867;52.038;29.256;2023-06-01T09:41:47;1020.6;;;32.2;19.1
74435;BME280;62867;52.038;29.256;2023-06-01T09:47:28;1020.6;;;32.6;20.1
74435;BME280;62867;52.038;29.256;2023-06-01T09:52:12;1020.5;;;32.8;19.5
74435;BME280;62867;52.038;29.256;2023-06-01T09:57:28;1020.5;;;32.7;19.2
74435;BME280;62867;52.038;29.256;2023-06-01T10:02:15;1020.5;;;32.9;18.9
74435;BME280;62867;52.038;29.256;2023-06-01T10:06:35;1020.4;;;33.2;19.2
74435;BME280;62867;52.038;29.256;2023-06-01T10:11:34;1020.4;;;33.6;19.8
74435;BME280;62867;52.038;29.256;2023-06-01T10:16:34;1020.3;;;34.1;19.4
74435;BME280;62867;52.038;29.256;2023-06-01T10:21:34;1020.3;;;34.2;18.7
74435;BME280;62867;52.038;29.256;2023-06-01T10:27:29;1020.3;;;34.5;19.3
74435;BME280;62867;52.038;29.256;2023-06-01T10:32:46;1020.2;;;34.7;18.6
74435;BME280;62867;52.038;29.256;2023-06-01T10:37:26;1020.2;;;34.9;18.4
74435;BME280;62867;52.038;29.256;2023-06-01T10:42:37;1020.1;;;35.1;18.3
74435;BME280;62867;52.038;29.256;2023-06-01T10:46:58;1020.1;;;35.5;18.4
74435;BME280;62867;52.038;29.256;2023-06-01T10:51:34;1020;;;35.6;18
74435;BME280;62867;52.038;29.256;2023-06-01T10:57:26;1019.9;;;35.9;18.1
74435;BME280;62867;52.038;29.256;2023-06-01T11:02:24;1019.9;;;36;17
74435;BME280;62867;52.038;29.256;2023-06-01T11:06:46;1019.8;;;36.3;17.8
74435;BME280;62867;52.038;29.256;2023-06-01T11:11:56;1019.8;;;36.7;17.7
74435;BME280;62867;52.038;29.256;2023-06-01T11:17:29;1019.7;;;36.9;17.2
74435;BME280;62867;52.038;29.256;2023-06-01T11:22:14;1019.7;;;37;16.9
74435;BME280;62867;52.038;29.256;2023-06-01T11:26:45;1019.6;;;37.1;16.3
74435;BME280;62867;52.038;29.256;2023-06-01T11:31:35;1019.6;;;37.6;17.2
74435;BME280;62867;52.038;29.256;2023-06-01T11:37:12;1019.5;;;37.9;17.4
74435;BME280;62867;52.038;29.256;2023-06-01T11:42:06;1019.5;;;38.1;16.8
74435;BME280;62867;52.038;29.256;2023-06-01T11:47:14;1019.4;;;39.5;15.2
74435;BME280;62867;52.038;29.256;2023-06-01T11:52:26;1019.3;;;43.4;13.7
74435;BME280;62867;52.038;29.256;2023-06-01T11:57:14;1019.3;;;46.2;11.7
74435;BME280;62867;52.038;29.256;2023-06-01T12:01:48;1019.3;;;49.2;10.1
74435;BME280;62867;52.038;29.256;2023-06-01T12:07:03;1019.3;;;51.5;9.2
74435;BME280;62867;52.038;29.256;2023-06-01T12:11:56;1019.1;;;52.8;7.4
74435;BME280;62867;52.038;29.256;2023-06-01T12:17:28;1019.1;;;54;6.8
74435;BME280;62867;52.038;29.256;2023-06-01T12:21:36;1019.1;;;55.4;6.6
74435;BME280;62867;52.038;29.256;2023-06-01T12:27:26;1019.1;;;56;6.4
74435;BME280;62867;52.038;29.256;2023-06-01T12:31:53;1019;;;56.5;5.7
74435;BME280;62867;52.038;29.256;2023-06-01T12:36:58;1018.9;;;56.6;4.7
74435;BME280;62867;52.038;29.256;2023-06-01T12:41:47;1018.8;;;55.1;6.1
74435;BME280;62867;52.038;29.256;2023-06-01T12:46:34;1018.8;;;51;7.8
74435;BME280;62867;52.038;29.256;2023-06-01T12:51:34;1018.7;;;46.7;9.3
74435;BME280;62867;52.038;29.256;2023-06-01T12:57:12;1018.7;;;42.3;11.9
74435;BME280;62867;52.038;29.256;2023-06-01T13:01:48;1018.6;;;39.5;13.5
74435;BME280;62867;52.038;29.256;2023-06-01T13:07:28;1018.6;;;37.1;16
74435;BME280;62867;52.038;29.256;2023-06-01T13:12:28;1018.5;;;35.2;16.2
74435;BME280;62867;52.038;29.256;2023-06-01T13:16:58;1018.6;;;33.5;17
74435;BME280;62867;52.038;29.256;2023-06-01T13:21:34;1018.5;;;32.6;19.2
74435;BME280;62867;52.038;29.256;2023-06-01T13:27:12;1018.5;;;33;19.8
74435;BME280;62867;52.038;29.256;2023-06-01T13:32:16;1018.4;;;32;20.6
74435;BME280;62867;52.038;29.256;2023-06-01T13:36:48;1018.4;;;31;21.9
74435;BME280;62867;52.038;29.256;2023-06-01T13:42:28;1018.5;;;30.2;22.6
74435;BME280;62867;52.038;29.256;2023-06-01T13:47:00;1018.4;;;29.8;22.3
74435;BME280;62867;52.038;29.256;2023-06-01T13:51:46;1018.4;;;29.4;22.9
74435;BME280;62867;52.038;29.256;2023-06-01T13:56:56;1018.3;;;29;23.3
74435;BME280;62867;52.038;29.256;2023-06-01T14:02:28;1018.2;;;28.9;23.7
74435;BME280;62867;52.038;29.256;2023-06-01T14:07:14;1018.2;;;28.6;25.5
74435;BME280;62867;52.038;29.256;2023-06-01T14:12:00;1018.3;;;28.4;24.8
74435;BME280;62867;52.038;29.256;2023-06-01T14:17:14;1018.2;;;28;25.1
74435;BME280;62867;52.038;29.256;2023-06-01T14:21:34;1018.1;;;27.6;26.6
74435;BME280;62867;52.038;29.256;2023-06-01T14:27:00;1018.2;;;27.3;28.5
74435;BME280;62867;52.038;29.256;2023-06-01T14:31:56;1018.1;;;26.9;26.9
74435;BME280;62867;52.038;29.256;2023-06-01T14:37:26;1018.1;;;26.7;27.9
74435;BME280;62867;52.038;29.256;2023-06-01T14:41:34;1018.1;;;26.5;27.4
74435;BME280;62867;52.038;29.256;2023-06-01T14:47:26;1018.1;;;26.4;27.1
74435;BME280;62867;52.038;29.256;2023-06-01T14:52:16;1018.1;;;26.3;28.1
74435;BME280;62867;52.038;29.256;2023-06-01T14:57:28;1018;;;26.1;29
74435;BME280;62867;52.038;29.256;2023-06-01T15:01:56;1018;;;26;28.3
74435;BME280;62867;52.038;29.256;2023-06-01T15:07:00;1018;;;25.8;28.6
74435;BME280;62867;52.038;29.256;2023-06-01T15:12:12;1017.9;;;25.7;28.4
74435;BME280;62867;52.038;29.256;2023-06-01T15:16:46;1017.9;;;25.6;29
74435;BME280;62867;52.038;29.256;2023-06-01T15:22:28;1017.9;;;25.4;29.9
74435;BME280;62867;52.038;29.256;2023-06-01T15:27:26;1017.8;;;25.3;29.2
74435;BME280;62867;52.038;29.256;2023-06-01T15:31:46;1017.8;;;25.1;31.7
74435;BME280;62867;52.038;29.256;2023-06-01T15:37:12;1017.8;;;25;30.1
74435;BME280;62867;52.038;29.256;2023-06-01T15:41:34;1017.8;;;24.9;30.3
74435;BME280;62867;52.038;29.256;2023-06-01T15:46:46;1017.8;;;24.9;30.7
74435;BME280;62867;52.038;29.256;2023-06-01T15:52:28;1017.8;;;24.8;30.6
74435;BME280;62867;52.038;29.256;2023-06-01T15:57:12;1017.8;;;24.7;30.2
74435;BME280;62867;52.038;29.256;2023-06-01T16:02:16;1017.7;;;24.6;31.2
74435;BME280;62867;52.038;29.256;2023-06-01T16:06:34;1017.7;;;24.5;30.7
74435;BME280;62867;52.038;29.256;2023-06-01T16:12:28;1017.7;;;24.4;31.1
74435;BME280;62867;52.038;29.256;2023-06-01T16:17:12;1017.6;;;24.3;32.1
74435;BME280;62867;52.038;29.256;2023-06-01T16:22:12;1017.6;;;24.2;32
74435;BME280;62867;52.038;29.256;2023-06-01T16:26:46;1017.6;;;24.1;33.5
74435;BME280;62867;52.038;29.256;2023-06-01T16:32:28;1017.6;;;23.9;34
74435;BME280;62867;52.038;29.256;2023-06-01T16:37:28;1017.6;;;23.7;34.7
74435;BME280;62867;52.038;29.256;2023-06-01T16:42:28;1017.6;;;23.6;33.6
74435;BME280;62867;52.038;29.256;2023-06-01T16:47:16;1017.6;;;23.5;35
74435;BME280;62867;52.038;29.256;2023-06-01T16:52:10;1017.5;;;23.3;34.7
74435;BME280;62867;52.038;29.256;2023-06-01T16:57:16;1017.5;;;23.3;34.7
74435;BME280;62867;52.038;29.256;2023-06-01T17:01:56;1017.5;;;23.1;35.1
74435;BME280;62867;52.038;29.256;2023-06-01T17:07:16;1017.4;;;23;35.6
74435;BME280;62867;52.038;29.256;2023-06-01T17:11:56;1017.4;;;22.8;36.5
74435;BME280;62867;52.038;29.256;2023-06-01T17:17:12;1017.4;;;22.5;37.5
74435;BME280;62867;52.038;29.256;2023-06-01T17:22:16;1017.4;;;22.3;37.5
74435;BME280;62867;52.038;29.256;2023-06-01T17:27:28;1017.4;;;22.1;38
74435;BME280;62867;52.038;29.256;2023-06-01T17:31:34;1017.4;;;21.9;38.4
74435;BME280;62867;52.038;29.256;2023-06-01T17:36:34;1017.4;;;21.8;39.2
74435;BME280;62867;52.038;29.256;2023-06-01T17:42:10;1017.4;;;21.6;38.9
74435;BME280;62867;52.038;29.256;2023-06-01T17:46:34;1017.4;;;21.4;39
74435;BME280;62867;52.038;29.256;2023-06-01T17:52:28;1017.4;;;21.3;39
74435;BME280;62867;52.038;29.256;2023-06-01T17:57:28;1017.4;;;21.1;39.3
74435;BME280;62867;52.038;29.256;2023-06-01T18:01:34;1017.4;;;21;39.6
74435;BME280;62867;52.038;29.256;2023-06-01T18:07:12;1017.4;;;20.8;40.2
74435;BME280;62867;52.038;29.256;2023-06-01T18:11:48;1017.4;;;20.5;40.7
74435;BME280;62867;52.038;29.256;2023-06-01T18:16:34;1017.4;;;20.3;41
74435;BME280;62867;52.038;29.256;2023-06-01T18:22:28;1017.4;;;20.1;41.6
74435;BME280;62867;52.038;29.256;2023-06-01T18:27:00;1017.4;;;19.9;42.3
74435;BME280;62867;52.038;29.256;2023-06-01T18:32:28;1017.4;;;19.7;42.9
74435;BME280;62867;52.038;29.256;2023-06-01T18:36:34;1017.5;;;19.5;43
74435;BME280;62867;52.038;29.256;2023-06-01T18:42:00;1017.5;;;19.4;43
74435;BME280;62867;52.038;29.256;2023-06-01T18:47:00;1017.4;;;19.3;43.1
74435;BME280;62867;52.038;29.256;2023-06-01T18:51:44;1017.4;;;19.1;43.2
74435;BME280;62867;52.038;29.256;2023-06-01T18:56:34;1017.4;;;19;43.3
74435;BME280;62867;52.038;29.256;2023-06-01T19:02:10;1017.3;;;18.9;43.5
74435;BME280;62867;52.038;29.256;2023-06-01T19:06:34;1017.3;;;18.8;44.1
74435;BME280;62867;52.038;29.256;2023-06-01T19:12:26;1017.3;;;18.6;44.6
74435;BME280;62867;52.038;29.256;2023-06-01T19:17:26;1017.3;;;18.4;44.7
74435;BME280;62867;52.038;29.256;2023-06-01T19:22:10;1017.4;;;18.3;45.1
74435;BME280;62867;52.038;29.256;2023-06-01T19:27:14;1017.4;;;18.2;45.5
74435;BME280;62867;52.038;29.256;2023-06-01T19:32:12;1017.4;;;18.1;45.9
74435;BME280;62867;52.038;29.256;2023-06-01T19:37:26;1017.4;;;18;45.9
74435;BME280;62867;52.038;29.256;2023-06-01T19:41:46;1017.4;;;17.9;45.8
74435;BME280;62867;52.038;29.256;2023-06-01T19:47:18;1017.4;;;17.9;45.8
74435;BME280;62867;52.038;29.256;2023-06-01T19:52:40;1017.4;;;17.8;45.9
74435;BME280;62867;52.038;29.256;2023-06-01T19:56:46;1017.4;;;17.7;46.1
74435;BME280;62867;52.038;29.256;2023-06-01T20:02:27;1017.3;;;17.7;46.3
74435;BME280;62867;52.038;29.256;2023-06-01T20:07:12;1017.4;;;17.5;46.9
74435;BME280;62867;52.038;29.256;2023-06-01T20:12:12;1017.3;;;17.5;47.3
74435;BME280;62867;52.038;29.256;2023-06-01T20:16:46;1017.3;;;17.4;47.4
74435;BME280;62867;52.038;29.256;2023-06-01T20:22:16;1017.3;;;17.3;47.5
74435;BME280;62867;52.038;29.256;2023-06-01T20:27:29;1017.3;;;17.2;47.6
74435;BME280;62867;52.038;29.256;2023-06-01T20:32:00;1017.2;;;17.1;48
74435;BME280;62867;52.038;29.256;2023-06-01T20:37:12;1017.2;;;17.1;47.7
74435;BME280;62867;52.038;29.256;2023-06-01T20:42:00;1017.2;;;17;47.6
74435;BME280;62867;52.038;29.256;2023-06-01T20:46:47;1017.2;;;17;47.5
74435;BME280;62867;52.038;29.256;2023-06-01T20:52:28;1017.2;;;16.9;47.5
74435;BME280;62867;52.038;29.256;2023-06-01T20:57:12;1017.2;;;16.8;47.3
74435;BME280;62867;52.038;29.256;2023-06-01T21:02:28;1017.1;;;16.8;47.6
74435;BME280;62867;52.038;29.256;2023-06-01T21:06:34;1017.1;;;16.7;47.9
74435;BME280;62867;52.038;29.256;2023-06-01T21:11:47;1017.1;;;16.6;48.3
74435;BME280;62867;52.038;29.256;2023-06-01T21:16:50;1017;;;16.5;48.6
74435;BME280;62867;52.038;29.256;2023-06-01T21:21:34;1017;;;16.5;48.7
74435;BME280;62867;52.038;29.256;2023-06-01T21:26:56;1017;;;16.4;49.1
74435;BME280;62867;52.038;29.256;2023-06-01T21:32:12;1017;;;16.4;49.3
74435;BME280;62867;52.038;29.256;2023-06-01T21:36:34;1016.9;;;16.4;49.3
74435;BME280;62867;52.038;29.256;2023-06-01T21:42:12;1016.9;;;16.3;49.4
74435;BME280;62867;52.038;29.256;2023-06-01T21:47:28;1016.9;;;16.3;49.5
74435;BME280;62867;52.038;29.256;2023-06-01T21:51:46;1016.9;;;16.3;49.6
74435;BME280;62867;52.038;29.256;2023-06-01T21:57:14;1016.8;;;16.3;49.5
74435;BME280;62867;52.038;29.256;2023-06-01T22:02:12;1016.8;;;16.2;50.2
74435;BME280;62867;52.038;29.256;2023-06-01T22:07:24;1016.8;;;16.2;50.7
74435;BME280;62867;52.038;29.256;2023-06-01T22:11:58;1016.8;;;16.1;51.2
74435;BME280;62867;52.038;29.256;2023-06-01T22:17:10;1016.7;;;16.1;51.8
74435;BME280;62867;52.038;29.256;2023-06-01T22:22:14;1016.8;;;16.1;52
74435;BME280;62867;52.038;29.256;2023-06-01T22:26:44;1016.8;;;16;51.6
74435;BME280;62867;52.038;29.256;2023-06-01T22:31:54;1016.8;;;16.1;52.1
74435;BME280;62867;52.038;29.256;2023-06-01T22:36:53;1016.8;;;16.1;52.2
74435;BME280;62867;52.038;29.256;2023-06-01T22:42:26;1016.8;;;16.1;52.1
74435;BME280;62867;52.038;29.256;2023-06-01T22:47:26;1016.8;;;16.1;51.9
74435;BME280;62867;52.038;29.256;2023-06-01T22:52:14;1016.8;;;16.1;51.7
74435;BME280;62867;52.038;29.256;2023-06-01T22:57:00;1016.8;;;16.1;51.5
74435;BME280;62867;52.038;29.256;2023-06-01T23:01:58;1016.8;;;16.1;51.1
74435;BME280;62867;52.038;29.256;2023-06-01T23:06:45;1016.7;;;16;51.2
74435;BME280;62867;52.038;29.256;2023-06-01T23:12:10;1016.7;;;15.9;51.3
74435;BME280;62867;52.038;29.256;2023-06-01T23:16:44;1016.7;;;15.9;51.5
74435;BME280;62867;52.038;29.256;2023-06-01T23:22:26;1016.7;;;15.8;51.8
74435;BME280;62867;52.038;29.256;2023-06-01T23:27:12;1016.7;;;15.7;52.2
74435;BME280;62867;52.038;29.256;2023-06-01T23:32:24;1016.7;;;15.7;52.2
74435;BME280;62867;52.038;29.256;2023-06-01T23:36:44;1016.6;;;15.6;51.9
74435;BME280;62867;52.038;29.256;2023-06-01T23:41:58;1016.6;;;15.6;51.6
74435;BME280;62867;52.038;29.256;2023-06-01T23:47:08;1016.6;;;15.5;51.6
74435;BME280;62867;52.038;29.256;2023-06-01T23:51:44;1016.6;;;15.5;51.5
74435;BME280;62867;52.038;29.256;2023-06-01T23:57:10;1016.5;;;15.5;51.6
